Time;durP1;ratioP1;P1;durP2;ratioP2;P2;SDS_P1;SDS_P2;PMS_P1;PMS_P2;Temp;Humidity;BMP_temperature;BMP_pressure;BME280_temperature;BME280_humidity;BME280_pressure;Samples;Min_cycle;Max_cycle;Signal;HPM_P1;HPM_P2
2021/06/26 00:00:26;;;;;;;28.47;19.30;;;;;;;20.28;69.68;98915.27;125792;1093;102908;-73
2021/06/26 00:03:29;;;;;;;28.87;19.03;;;;;;;20.29;69.83;98918.78;125670;1093;104165;-74
2021/06/26 00:05:59;;;;;;;30.13;19.60;;;;;;;20.29;69.46;98916.94;125627;1093;103063;-74
2021/06/26 00:08:29;;;;;;;30.60;20.00;;;;;;;20.29;69.63;98927.75;125819;1093;103029;-74
2021/06/26 00:11:02;;;;;;;29.00;20.38;;;;;;;20.29;69.72;98930.45;125687;1093;102911;-73
2021/06/26 00:13:30;;;;;;;34.00;20.60;;;;;;;20.29;69.62;98937.69;125705;1093;102933;-72
2021/06/26 00:15:58;;;;;;;32.13;20.83;;;;;;;20.23;69.52;98939.25;125637;1096;102999;-72
2021/06/26 00:18:29;;;;;;;34.07;21.40;;;;;;;20.18;69.49;98938.94;125636;1095;102935;-76
2021/06/26 00:20:57;;;;;;;29.97;20.80;;;;;;;20.12;69.79;98940.50;125665;1094;103004;-73
2021/06/26 00:23:26;;;;;;;30.33;20.50;;;;;;;20.10;69.96;98939.83;125676;1096;102910;-72
2021/06/26 00:26:09;;;;;;;29.40;20.68;;;;;;;20.07;69.88;98946.41;125713;1095;103017;-72
2021/06/26 00:28:39;;;;;;;29.90;21.17;;;;;;;20.04;69.89;98944.06;125683;1095;103339;-73
2021/06/26 00:31:08;;;;;;;32.53;21.80;;;;;;;20.00;69.58;98948.13;125653;1094;103006;-73
2021/06/26 00:33:37;;;;;;;33.03;22.57;;;;;;;19.92;69.90;98948.19;125686;1096;103005;-73
2021/06/26 00:36:08;;;;;;;30.33;22.13;;;;;;;19.83;69.41;98952.72;125661;1096;103088;-72
2021/06/26 00:38:36;;;;;;;32.00;24.13;;;;;;;19.78;69.80;98949.70;125703;1096;103030;-73
2021/06/26 00:41:07;;;;;;;29.20;22.63;;;;;;;19.71;69.99;98948.73;125664;1096;103022;-72
2021/06/26 00:43:35;;;;;;;30.77;22.00;;;;;;;19.69;70.08;98943.50;125573;1097;102916;-72
2021/06/26 00:46:03;;;;;;;31.07;22.70;;;;;;;19.69;69.81;98939.98;125677;1096;102945;-72
2021/06/26 00:48:34;;;;;;;29.10;21.43;;;;;;;19.70;70.16;98933.56;125639;1095;102995;-71
2021/06/26 00:51:02;;;;;;;31.10;22.00;;;;;;;19.68;69.95;98930.20;125679;1096;102929;-73
2021/06/26 00:53:31;;;;;;;32.53;23.30;;;;;;;19.68;70.00;98931.02;125672;1095;102993;-74
2021/06/26 00:56:02;;;;;;;31.65;21.70;;;;;;;19.67;70.30;98928.52;125611;1096;102988;-71
2021/06/26 00:58:31;;;;;;;29.63;21.73;;;;;;;19.64;70.07;98927.84;125645;1096;103512;-71
2021/06/26 01:00:59;;;;;;;31.00;21.60;;;;;;;19.62;70.05;98923.63;125652;1094;103009;-70
2021/06/26 01:03:29;;;;;;;31.70;22.67;;;;;;;19.61;70.31;98927.33;125673;1094;103071;-71
2021/06/26 01:05:57;;;;;;;30.37;21.50;;;;;;;19.62;69.96;98931.72;125657;1095;103005;-71
2021/06/26 01:08:25;;;;;;;30.50;20.57;;;;;;;19.61;70.11;98925.49;125671;1095;101797;-72
2021/06/26 01:10:54;;;;;;;30.27;21.37;;;;;;;19.61;70.47;98911.14;125680;1096;103173;-72
2021/06/26 01:13:22;;;;;;;34.97;22.07;;;;;;;19.60;70.38;98913.02;125646;1096;102916;-72
2021/06/26 01:15:53;;;;;;;32.57;21.70;;;;;;;19.58;70.69;98904.25;125681;1094;102948;-74
2021/06/26 01:18:22;;;;;;;29.63;20.53;;;;;;;19.57;70.62;98907.11;125646;1092;103097;-75
2021/06/26 01:20:51;;;;;;;29.53;21.03;;;;;;;19.55;70.64;98899.20;125643;1093;103068;-71
2021/06/26 01:23:24;;;;;;;32.10;20.97;;;;;;;19.54;70.54;98888.61;125665;1096;103033;-72
2021/06/26 01:25:54;;;;;;;29.93;20.83;;;;;;;19.51;70.57;98892.47;125586;1093;103049;-73
2021/06/26 01:28:23;;;;;;;28.33;19.87;;;;;;;19.50;70.78;98890.79;125647;1093;102922;-72
2021/06/26 01:30:51;;;;;;;28.37;19.93;;;;;;;19.47;70.66;98894.69;125621;1093;103074;-71
2021/06/26 01:33:19;;;;;;;30.00;20.03;;;;;;;19.42;70.89;98890.81;125583;1093;103079;-72
2021/06/26 01:35:48;;;;;;;30.90;21.27;;;;;;;19.38;70.69;98901.12;125681;1096;102940;-72
2021/06/26 01:38:18;;;;;;;29.47;19.87;;;;;;;19.39;70.74;98901.94;125650;1095;103094;-69
2021/06/26 01:40:47;;;;;;;29.40;20.90;;;;;;;19.38;70.50;98897.56;125701;1096;102936;-72
2021/06/26 01:43:15;;;;;;;30.20;20.03;;;;;;;19.39;70.58;98889.31;125668;1096;102935;-70
2021/06/26 01:45:44;;;;;;;30.63;20.47;;;;;;;19.41;71.30;98897.22;125643;1095;103053;-71
2021/06/26 01:48:12;;;;;;;29.33;21.00;;;;;;;19.42;70.93;98888.11;125685;1096;103408;-70
2021/06/26 01:50:40;;;;;;;30.40;20.23;;;;;;;19.43;70.84;98881.70;125684;1096;103061;-70
2021/06/26 01:53:09;;;;;;;29.70;20.90;;;;;;;19.43;70.92;98879.87;125699;1096;102939;-71
2021/06/26 01:55:37;;;;;;;31.70;22.17;;;;;;;19.43;70.92;98873.61;125681;1095;102913;-71
2021/06/26 01:58:05;;;;;;;34.83;20.47;;;;;;;19.43;70.73;98871.78;125670;1096;102919;-71
2021/06/26 02:00:34;;;;;;;30.85;19.40;;;;;;;19.42;70.89;98888.11;125719;1096;103425;-69
2021/06/26 02:03:05;;;;;;;30.23;20.30;;;;;;;19.37;70.57;98893.19;125644;1096;103008;-70
2021/06/26 02:05:33;;;;;;;34.10;21.67;;;;;;;19.32;70.90;98886.48;125680;1096;103007;-71
2021/06/26 02:08:02;;;;;;;30.77;22.43;;;;;;;19.31;71.39;98881.24;125686;1094;103240;-70
2021/06/26 02:10:30;;;;;;;33.30;22.33;;;;;;;19.32;71.17;98888.31;125667;1096;102994;-72
2021/06/26 02:13:01;;;;;;;33.43;23.60;;;;;;;19.30;71.55;98891.20;125692;1096;102921;-72
2021/06/26 02:15:31;;;;;;;29.43;22.17;;;;;;;19.28;71.16;98895.06;125671;1096;102984;-72
2021/06/26 02:18:02;;;;;;;34.43;26.83;;;;;;;19.25;71.00;98904.36;125658;1096;103041;-72
2021/06/26 02:20:30;;;;;;;36.07;25.97;;;;;;;19.23;71.44;98909.08;125678;1096;102991;-70
2021/06/26 02:23:01;;;;;;;35.93;26.63;;;;;;;19.24;71.34;98917.99;125680;1096;103040;-72
2021/06/26 02:25:29;;;;;;;38.23;26.33;;;;;;;19.24;71.54;98918.84;125686;1095;103364;-72
2021/06/26 02:27:57;;;;;;;37.30;27.23;;;;;;;19.25;71.55;98923.23;125649;1096;103036;-71
2021/06/26 02:30:26;;;;;;;40.20;26.60;;;;;;;19.25;71.62;98923.23;125688;1096;103027;-71
2021/06/26 02:32:58;;;;;;;34.67;25.80;;;;;;;19.26;71.31;98922.22;125668;1096;102993;-71
2021/06/26 02:35:27;;;;;;;35.70;26.27;;;;;;;19.28;71.59;98919.34;125660;1096;103065;-72
2021/06/26 02:37:55;;;;;;;34.37;25.90;;;;;;;19.27;71.40;98917.66;125691;1096;103061;-72
2021/06/26 02:40:23;;;;;;;34.87;25.77;;;;;;;19.27;71.51;98917.66;125653;1095;103408;-72
2021/06/26 02:42:52;;;;;;;34.53;26.07;;;;;;;19.27;71.59;98917.66;125684;1096;103032;-71
2021/06/26 02:45:20;;;;;;;34.07;24.33;;;;;;;19.25;71.49;98925.07;125684;1096;103448;-71
2021/06/26 02:47:48;;;;;;;33.60;25.40;;;;;;;19.22;71.36;98933.50;125653;1095;103042;-72
2021/06/26 02:50:17;;;;;;;38.03;25.40;;;;;;;19.19;71.41;98935.52;125640;1097;103070;-73
2021/06/26 02:52:46;;;;;;;36.30;25.83;;;;;;;19.18;71.58;98941.09;125714;1096;103439;-72
2021/06/26 02:55:16;;;;;;;33.97;23.53;;;;;;;19.15;71.63;98936.05;125698;1096;103084;-73
2021/06/26 02:57:44;;;;;;;33.63;23.57;;;;;;;19.10;71.53;98936.56;125672;1096;102964;-72
2021/06/26 03:00:13;;;;;;;37.87;26.70;;;;;;;19.07;71.24;98944.14;125656;1095;103034;-73
2021/06/26 03:02:42;;;;;;;33.13;23.23;;;;;;;19.04;71.84;98943.46;125694;1096;102994;-72
2021/06/26 03:05:10;;;;;;;33.33;23.00;;;;;;;19.02;71.46;98947.35;125671;1095;102943;-71
2021/06/26 03:07:39;;;;;;;31.47;22.87;;;;;;;18.96;71.31;98956.94;125646;1095;102916;-72
2021/06/26 03:10:07;;;;;;;34.23;24.27;;;;;;;18.94;71.84;98950.01;125648;1095;103031;-71
2021/06/26 03:12:36;;;;;;;33.73;23.13;;;;;;;18.90;71.74;98950.34;125543;1095;102977;-72
2021/06/26 03:15:06;;;;;;;33.10;24.00;;;;;;;18.90;71.64;98960.30;125612;1093;103090;-70
2021/06/26 03:17:34;;;;;;;37.70;24.87;;;;;;;18.90;71.47;98958.43;125578;1092;102943;-71
2021/06/26 03:20:06;;;;;;;30.13;21.00;;;;;;;18.90;71.97;98955.73;125692;1093;102936;-72
2021/06/26 03:22:37;;;;;;;38.87;25.83;;;;;;;18.90;71.96;98950.34;125684;1094;103393;-71
2021/06/26 03:25:09;;;;;;;34.30;22.67;;;;;;;18.94;71.74;98960.79;125641;1093;103061;-72
2021/06/26 03:27:38;;;;;;;36.70;24.17;;;;;;;18.96;71.63;98956.11;125711;1093;102994;-72
2021/06/26 03:30:09;;;;;;;34.03;23.83;;;;;;;18.97;72.00;98955.09;125673;1093;102961;-74
2021/06/26 03:32:37;;;;;;;31.70;22.57;;;;;;;18.97;71.83;98957.80;125723;1092;103087;-74
2021/06/26 03:35:07;;;;;;;33.13;20.77;;;;;;;18.96;71.77;98964.19;125697;1092;103087;-74
2021/06/26 03:37:36;;;;;;;32.97;22.97;;;;;;;18.93;71.79;98970.74;125627;1093;103489;-74
2021/06/26 03:40:07;;;;;;;31.30;21.70;;;;;;;18.91;72.40;98972.77;125685;1093;103000;-74
2021/06/26 03:42:37;;;;;;;30.50;21.33;;;;;;;18.90;71.67;98973.77;125687;1093;102974;-73
2021/06/26 03:45:08;;;;;;;30.23;20.77;;;;;;;18.91;72.07;98975.45;125655;1093;103039;-73
2021/06/26 03:47:37;;;;;;;29.73;20.67;;;;;;;18.89;71.74;98975.61;125715;1096;102997;-74
2021/06/26 03:50:10;;;;;;;33.40;22.00;;;;;;;18.90;71.81;98992.64;125627;1096;103188;-73
2021/06/26 03:52:38;;;;;;;30.27;20.37;;;;;;;18.88;71.78;98979.31;125680;1095;103064;-74
2021/06/26 03:55:09;;;;;;;30.90;21.40;;;;;;;18.88;71.88;98986.57;125670;1096;103008;-72
2021/06/26 03:57:39;;;;;;;29.90;20.30;;;;;;;18.86;72.24;98984.02;125695;1096;102994;-71
2021/06/26 04:00:10;;;;;;;31.60;21.97;;;;;;;18.87;72.21;98991.09;125696;1095;102935;-73
2021/06/26 04:02:38;;;;;;;31.80;22.53;;;;;;;18.85;71.80;98992.30;125655;1096;103037;-72
2021/06/26 04:05:07;;;;;;;32.40;21.83;;;;;;;18.81;71.76;98994.45;125714;1095;103034;-73
2021/06/26 04:07:35;;;;;;;30.30;20.93;;;;;;;18.78;71.93;98984.02;125627;1096;102914;-73
2021/06/26 04:10:08;;;;;;;32.00;19.93;;;;;;;18.75;72.16;98981.65;125715;1096;103037;-74
2021/06/26 04:12:36;;;;;;;29.40;20.37;;;;;;;18.72;72.08;98984.70;125712;1096;103400;-74
2021/06/26 04:15:07;;;;;;;26.20;18.33;;;;;;;18.70;72.29;98990.25;125666;1096;103073;-71
2021/06/26 04:17:38;;;;;;;30.37;20.00;;;;;;;18.70;72.41;99003.72;125680;1096;102924;-72
2021/06/26 04:20:09;;;;;;;32.20;19.23;;;;;;;18.67;71.89;99003.22;125649;1096;103033;-71
2021/06/26 04:22:37;;;;;;;28.80;18.97;;;;;;;18.62;72.34;99001.00;125666;1094;103001;-72
2021/06/26 04:25:08;;;;;;;28.17;18.77;;;;;;;18.61;72.06;98996.62;125681;1095;103071;-72
2021/06/26 04:27:36;;;;;;;24.30;15.80;;;;;;;18.59;72.31;99004.88;125668;1096;103012;-73
2021/06/26 04:30:08;;;;;;;24.63;16.23;;;;;;;18.57;72.20;99000.64;125690;1095;103528;-72
2021/06/26 04:32:39;;;;;;;26.17;17.33;;;;;;;18.54;72.26;99006.39;125655;1097;103150;-73
2021/06/26 04:35:12;;;;;;;27.40;17.13;;;;;;;18.48;72.24;99013.27;125635;1093;103441;-73
2021/06/26 04:37:42;;;;;;;28.60;17.17;;;;;;;18.43;72.05;99011.07;125636;1093;103065;-73
2021/06/26 04:40:12;;;;;;;26.10;16.07;;;;;;;18.42;72.36;99005.83;125621;1094;102885;-73
2021/06/26 04:42:40;;;;;;;24.13;15.93;;;;;;;18.39;72.13;99011.55;125643;1091;102924;-74
2021/06/26 04:45:11;;;;;;;25.60;17.57;;;;;;;18.38;72.13;99009.86;125655;1093;102910;-73
2021/06/26 04:47:42;;;;;;;26.90;17.77;;;;;;;18.37;72.30;99000.09;125675;1093;102938;-73
2021/06/26 04:50:13;;;;;;;25.77;16.90;;;;;;;18.41;72.56;98993.38;125650;1092;102902;-73
2021/06/26 04:52:46;;;;;;;25.73;17.13;;;;;;;18.45;72.31;98984.82;125684;1093;103278;-73
2021/06/26 04:55:15;;;;;;;28.40;17.37;;;;;;;18.52;72.62;98973.39;125747;1092;102916;-72
2021/06/26 04:57:44;;;;;;;29.70;17.13;;;;;;;18.55;72.20;98962.27;125705;1093;103016;-73
2021/06/26 05:00:14;;;;;;;27.20;16.47;;;;;;;18.59;72.31;98963.62;125697;1096;102994;-73
2021/06/26 05:02:43;;;;;;;30.83;18.23;;;;;;;18.59;72.51;98959.09;125680;1092;103009;-73
2021/06/26 05:05:13;;;;;;;27.55;17.75;;;;;;;18.61;72.43;98966.98;125682;1093;103415;-72
2021/06/26 05:07:43;;;;;;;28.53;17.40;;;;;;;18.61;72.23;98964.30;125723;1093;103377;-73
2021/06/26 05:10:12;;;;;;;28.63;18.93;;;;;;;18.63;72.70;98967.67;125692;1093;103065;-72
2021/06/26 05:12:45;;;;;;;25.10;16.17;;;;;;;18.65;72.48;98964.83;125741;1093;103118;-73
2021/06/26 05:15:15;;;;;;;27.95;17.10;;;;;;;18.68;72.54;98969.88;125699;1093;103035;-73
2021/06/26 05:17:44;;;;;;;25.73;16.80;;;;;;;18.72;72.82;98968.55;125633;1094;102910;-72
2021/06/26 05:20:17;;;;;;;24.17;16.10;;;;;;;18.77;72.67;98968.86;125710;1093;102916;-72
2021/06/26 05:22:47;;;;;;;24.80;16.48;;;;;;;18.81;72.77;98975.59;125653;1096;103412;-73
2021/06/26 05:25:17;;;;;;;29.77;16.43;;;;;;;18.84;72.83;98977.96;125712;1093;103087;-73
2021/06/26 05:27:46;;;;;;;25.97;16.97;;;;;;;18.90;72.42;98973.77;125654;1094;103009;-72
2021/06/26 05:30:16;;;;;;;26.50;16.37;;;;;;;18.96;72.59;98974.97;125673;1093;102930;-72
2021/06/26 05:32:45;;;;;;;23.50;15.70;;;;;;;19.01;72.45;98970.75;125677;1093;102942;-71
2021/06/26 05:35:13;;;;;;;27.80;16.95;;;;;;;19.07;72.70;98976.48;125667;1093;102913;-71
2021/06/26 05:37:43;;;;;;;26.27;15.97;;;;;;;19.11;72.07;98980.53;125674;1093;102933;-70
2021/06/26 05:40:15;;;;;;;27.10;16.67;;;;;;;19.13;72.21;98990.15;125673;1093;102911;-71
2021/06/26 05:42:46;;;;;;;23.73;15.80;;;;;;;19.13;72.62;98976.67;125645;1096;103135;-71
2021/06/26 05:45:14;;;;;;;24.27;15.13;;;;;;;19.14;72.46;98978.35;125671;1096;102997;-72
2021/06/26 05:47:43;;;;;;;23.60;15.70;;;;;;;19.14;72.21;98972.10;125661;1092;103425;-71
2021/06/26 05:50:12;;;;;;;26.27;15.10;;;;;;;19.17;72.58;98977.98;125699;1093;102913;-72
2021/06/26 05:52:50;;;;;;;;;;;;;;;19.19;72.75;98978.66;125700;1093;102941;-73
2021/06/26 05:55:20;;;;;;;;;;;;;;;19.19;72.67;98985.92;125694;1096;102916;-72
2021/06/26 05:57:51;;;;;;;22.47;14.17;;;;;;;19.19;72.46;98996.70;125709;1093;102948;-74
2021/06/26 06:00:22;;;;;;;27.93;16.17;;;;;;;19.21;72.93;98994.69;125685;1093;103061;-72
2021/06/26 06:02:52;;;;;;;24.87;14.53;;;;;;;19.20;72.43;98993.00;125714;1093;102916;-72
2021/06/26 06:05:21;;;;;;;23.43;14.20;;;;;;;19.18;72.86;98998.55;125694;1096;103003;-72
2021/06/26 06:07:49;;;;;;;24.23;15.20;;;;;;;19.15;72.46;98998.91;125640;1095;102912;-71
2021/06/26 06:10:22;;;;;;;;;;;;;;;19.12;72.35;99001.08;125723;1095;103022;-72
2021/06/26 06:12:51;;;;;;;23.67;14.90;;;;;;;19.07;72.18;99006.99;125669;1095;102998;-72
2021/06/26 06:15:21;;;;;;;24.53;14.73;;;;;;;19.10;72.51;99006.66;125689;1093;102934;-71
2021/06/26 06:17:50;;;;;;;24.20;15.87;;;;;;;19.13;72.53;99003.63;125677;1095;103088;-74
2021/06/26 06:20:18;;;;;;;23.83;14.73;;;;;;;19.18;72.34;99005.80;125673;1095;103014;-71
2021/06/26 06:22:49;;;;;;;24.10;14.30;;;;;;;19.19;72.86;99002.92;125703;1096;103012;-71
2021/06/26 06:25:17;;;;;;;23.50;15.10;;;;;;;19.21;72.28;99002.77;125662;1096;102913;-71
2021/06/26 06:27:45;;;;;;;24.93;16.23;;;;;;;19.22;72.55;98996.37;125674;1096;103033;-73
2021/06/26 06:30:14;;;;;;;26.70;16.13;;;;;;;19.21;72.63;98991.98;125712;1096;103079;-72
2021/06/26 06:32:45;;;;;;;26.37;15.87;;;;;;;19.25;72.37;98997.87;125654;1096;103009;-72
2021/06/26 06:35:14;;;;;;;23.00;14.13;;;;;;;19.27;72.10;98998.55;125684;1092;103598;-72
2021/06/26 06:37:47;;;;;;;22.67;15.37;;;;;;;19.30;72.25;98998.20;125677;1094;102991;-71
2021/06/26 06:40:15;;;;;;;23.77;15.40;;;;;;;19.35;72.34;98995.84;125669;1093;102938;-71
2021/06/26 06:42:46;;;;;;;26.70;15.50;;;;;;;19.44;72.58;98996.67;125667;1093;104484;-69
2021/06/26 06:45:17;;;;;;;25.27;15.30;;;;;;;19.53;72.31;98995.65;125623;1092;103071;-72
2021/06/26 06:47:45;;;;;;;23.53;15.37;;;;;;;19.66;72.39;98999.68;125696;1093;103364;-71
2021/06/26 06:50:16;;;;;;;25.87;15.77;;;;;;;19.76;72.35;98994.94;125695;1093;102913;-72
2021/06/26 06:52:47;;;;;;;26.70;15.67;;;;;;;19.81;72.24;98992.53;125696;1093;103080;-71
2021/06/26 06:55:16;;;;;;;27.07;16.00;;;;;;;19.86;72.52;98992.86;125685;1093;102995;-77
2021/06/26 06:57:48;;;;;;;24.30;15.03;;;;;;;19.88;72.20;98998.96;125671;1093;103011;-71
2021/06/26 07:00:21;;;;;;;21.83;14.17;;;;;;;19.86;72.23;98995.56;125687;1095;102916;-67
2021/06/26 07:02:49;;;;;;;24.17;14.83;;;;;;;19.91;72.21;98998.61;125646;1093;103428;-66
2021/06/26 07:05:17;;;;;;;20.73;13.43;;;;;;;19.97;72.41;99001.64;125675;1095;102913;-66
2021/06/26 07:07:46;;;;;;;23.50;14.47;;;;;;;20.02;72.13;98994.69;125684;1092;103364;-67
2021/06/26 07:10:14;;;;;;;22.33;14.37;;;;;;;20.11;72.44;98994.66;125642;1093;103080;-68
2021/06/26 07:12:43;;;;;;;23.80;15.13;;;;;;;20.21;72.16;98989.90;125666;1093;102907;-68
2021/06/26 07:15:16;;;;;;;23.43;14.40;;;;;;;20.30;72.22;98987.98;125658;1096;103287;-66
2021/06/26 07:17:44;;;;;;;22.57;14.73;;;;;;;20.42;72.34;98996.53;125661;1096;102942;-66
2021/06/26 07:20:15;;;;;;;27.40;13.93;;;;;;;20.64;72.13;98993.03;125678;1093;102984;-66
2021/06/26 07:22:43;;;;;;;26.53;15.33;;;;;;;20.81;72.08;98998.34;125641;1093;103020;-66
2021/06/26 07:25:11;;;;;;;21.10;13.03;;;;;;;21.00;71.67;99002.42;125657;1093;102941;-66
2021/06/26 07:27:40;;;;;;;20.83;12.43;;;;;;;21.34;72.15;98987.63;125654;1095;102991;-66
2021/06/26 07:30:11;;;;;;;23.50;12.30;;;;;;;21.73;71.79;98983.01;125657;1096;103031;-66
2021/06/26 07:32:44;;;;;;;22.13;13.53;;;;;;;22.30;71.33;98986.05;125623;1096;102936;-66
2021/06/26 07:35:16;;;;;;;21.53;12.87;;;;;;;22.54;71.69;98986.77;125664;1096;102935;-66
2021/06/26 07:37:44;;;;;;;20.30;11.65;;;;;;;22.67;71.71;98986.91;125694;1094;102935;-67
2021/06/26 07:40:19;;;;;;;19.87;11.13;;;;;;;22.64;71.64;98997.28;125613;1096;103001;-67
2021/06/26 07:42:47;;;;;;;19.93;11.70;;;;;;;22.52;72.00;98992.39;125663;1092;102981;-68
2021/06/26 07:45:18;;;;;;;20.00;11.47;;;;;;;22.44;71.59;98992.49;125654;1093;102990;-67
2021/06/26 07:47:49;;;;;;;20.23;11.57;;;;;;;22.39;71.94;98992.19;125631;1092;102997;-67
2021/06/26 07:50:17;;;;;;;20.23;11.37;;;;;;;22.37;71.48;98988.83;125640;1093;103003;-67
2021/06/26 07:52:46;;;;;;;21.83;12.57;;;;;;;22.31;71.66;98988.56;125627;1093;103025;-67
2021/06/26 07:55:14;;;;;;;19.30;11.17;;;;;;;22.30;71.27;98988.77;125672;1093;103010;-67
2021/06/26 07:57:42;;;;;;;21.93;12.83;;;;;;;22.25;71.42;98988.48;125661;1093;103012;-67
2021/06/26 08:00:14;;;;;;;22.90;11.87;;;;;;;22.20;71.44;98983.66;125593;1093;103061;-67
2021/06/26 08:02:42;;;;;;;19.50;10.80;;;;;;;22.12;71.54;98989.17;125621;1092;102932;-68
2021/06/26 08:05:14;;;;;;;21.87;12.23;;;;;;;22.06;71.17;98984.50;125658;1092;103033;-65
2021/06/26 08:07:55;;;;;;;;;;;;;;;22.01;71.15;98985.91;125663;1094;102945;-67
2021/06/26 08:10:25;;;;;;;19.70;11.93;;;;;;;22.08;70.73;98974.32;125762;1093;102943;-66
2021/06/26 08:12:54;;;;;;;19.67;11.90;;;;;;;22.14;70.95;98979.81;125643;1093;103117;-67
2021/06/26 08:15:25;;;;;;;21.67;11.83;;;;;;;22.20;70.91;98974.67;125697;1093;102955;-67
2021/06/26 08:17:59;;;;;;;19.37;11.80;;;;;;;22.34;70.59;98972.95;125684;1092;102913;-67
2021/06/26 08:20:27;;;;;;;21.17;12.37;;;;;;;22.41;70.50;98982.00;125669;1093;102911;-70
2021/06/26 08:22:58;;;;;;;21.13;12.10;;;;;;;22.56;70.46;98979.28;125659;1093;102909;-69
2021/06/26 08:25:33;;;;;;;22.73;11.87;;;;;;;22.73;70.36;98966.31;125615;1093;103029;-68
2021/06/26 08:28:07;;;;;;;19.57;11.53;;;;;;;22.82;70.25;98967.88;125643;1092;103220;-66
2021/06/26 08:30:36;;;;;;;19.40;10.97;;;;;;;22.84;70.71;98965.80;125632;1093;103070;-66
2021/06/26 08:33:05;;;;;;;20.63;11.93;;;;;;;22.98;70.62;98966.77;125690;1093;103000;-68
2021/06/26 08:35:34;;;;;;;19.30;11.25;;;;;;;23.18;70.50;98961.51;125604;1093;103016;-68
2021/06/26 08:38:05;;;;;;;21.53;11.03;;;;;;;23.35;70.38;98961.26;125615;1093;103073;-67
2021/06/26 08:40:35;;;;;;;19.97;10.00;;;;;;;23.36;69.99;98964.80;125619;1095;102997;-66
2021/06/26 08:43:07;;;;;;;20.30;10.57;;;;;;;23.19;69.77;98962.36;125648;1093;102961;-66
2021/06/26 08:45:38;;;;;;;17.93;10.40;;;;;;;23.05;69.81;98964.95;125648;1092;103062;-67
2021/06/26 08:48:08;;;;;;;19.80;11.00;;;;;;;22.89;70.09;98957.93;125610;1093;102974;-65
2021/06/26 08:50:37;;;;;;;19.87;11.00;;;;;;;22.85;69.67;98958.50;125550;1093;103170;-65
2021/06/26 08:53:07;;;;;;;23.07;12.00;;;;;;;22.80;70.02;98950.95;125455;1093;102986;-66
2021/06/26 08:55:35;;;;;;;20.05;11.80;;;;;;;22.78;70.00;98950.31;125554;1093;103176;-66
2021/06/26 08:58:08;;;;;;;18.87;10.67;;;;;;;22.79;69.96;98956.59;125601;1092;102930;-67
2021/06/26 09:00:38;;;;;;;23.00;12.47;;;;;;;22.72;69.42;98956.50;127062;1093;101945;-68
2021/06/26 09:03:11;;;;;;;18.67;10.43;;;;;;;22.64;69.76;98951.20;126229;1093;103069;-66
2021/06/26 09:05:44;;;;;;;20.47;11.80;;;;;;;22.72;69.32;98951.94;125768;1093;103004;-68
2021/06/26 09:08:18;;;;;;;20.35;11.70;;;;;;;23.05;68.99;98948.68;125399;1095;103111;-67
2021/06/26 09:10:52;;;;;;;19.70;11.60;;;;;;;23.31;69.50;98951.83;125590;1092;103157;-66
2021/06/26 09:13:25;;;;;;;19.07;10.60;;;;;;;23.74;69.13;98948.13;125539;1092;102940;-67
2021/06/26 09:16:11;;;;;;;21.30;12.10;;;;;;;24.11;69.46;98945.20;125537;1092;102934;-65
2021/06/26 09:18:43;;;;;;;20.07;10.27;;;;;;;24.44;68.95;98945.32;125569;1095;102974;-65
2021/06/26 09:24:08;;;;;;;18.47;10.43;;;;;;;25.07;68.95;98941.44;125556;1091;103071;-66
2021/06/26 09:27:01;;;;;;;21.53;10.67;;;;;;;25.09;68.34;98938.50;125876;1092;102952;-65
2021/06/26 09:29:29;;;;;;;17.50;9.10;;;;;;;24.96;68.39;98937.47;125560;1093;103087;-66
2021/06/26 09:32:03;;;;;;;18.80;9.57;;;;;;;25.12;68.25;98935.36;125671;1092;102916;-66
2021/06/26 09:34:43;;;;;;;17.67;9.50;;;;;;;25.47;68.22;98932.45;125605;1093;103006;-64
2021/06/26 09:37:27;;;;;;;21.70;10.07;;;;;;;25.61;67.98;98932.39;125657;1096;103432;-65
2021/06/26 09:40:03;;;;;;;20.13;10.70;;;;;;;25.42;67.80;98940.38;125628;1095;102967;-65
2021/06/26 09:42:39;;;;;;;17.97;9.30;;;;;;;25.36;68.06;98943.94;125630;1093;103055;-65
2021/06/26 09:45:11;;;;;;;16.60;8.60;;;;;;;25.52;67.78;98935.34;125671;1096;102945;-67
2021/06/26 09:47:44;;;;;;;16.90;9.77;;;;;;;25.67;68.03;98926.09;125640;1093;103030;-68
2021/06/26 09:50:20;;;;;;;18.83;10.23;;;;;;;25.73;67.50;98918.95;125669;1095;102913;-65
2021/06/26 09:52:49;;;;;;;17.27;9.83;;;;;;;25.68;67.21;98920.42;125609;1094;103041;-65
2021/06/26 09:55:22;;;;;;;18.20;10.13;;;;;;;25.70;67.13;98922.95;125624;1093;102940;-66
2021/06/26 09:58:17;;;;;;;18.83;10.47;;;;;;;25.72;67.01;98915.41;125631;1092;102949;-66
2021/06/26 10:00:47;;;;;;;18.70;9.87;;;;;;;25.74;66.98;98917.89;125613;1093;103093;-66
2021/06/26 10:03:22;;;;;;;17.40;9.50;;;;;;;25.81;66.95;98913.27;125660;1095;103127;-65
2021/06/26 10:05:57;;;;;;;21.00;11.23;;;;;;;25.83;66.62;98905.72;125642;1096;103050;-67
2021/06/26 10:08:26;;;;;;;20.53;9.90;;;;;;;25.79;66.28;98907.20;125624;1095;103038;-65
2021/06/26 10:11:00;;;;;;;17.47;10.27;;;;;;;25.73;66.17;98903.45;125662;1096;102985;-66
2021/06/26 10:13:29;;;;;;;19.20;9.93;;;;;;;25.63;65.79;98905.78;125659;1096;102945;-68
2021/06/26 10:16:03;;;;;;;17.67;9.43;;;;;;;25.53;65.84;98909.78;125684;1093;103412;-66
2021/06/26 10:18:35;;;;;;;19.33;10.00;;;;;;;25.48;65.72;98914.20;125637;1093;103173;-65
2021/06/26 10:21:07;;;;;;;18.27;9.63;;;;;;;25.40;65.85;98916.06;125658;1095;103090;-67
2021/06/26 10:23:39;;;;;;;19.30;9.70;;;;;;;25.37;65.57;98908.33;125588;1096;102976;-67
2021/06/26 10:26:10;;;;;;;16.03;8.70;;;;;;;25.40;65.43;98905.18;125598;1093;103091;-68
2021/06/26 10:28:50;;;;;;;15.20;8.60;;;;;;;25.44;65.04;98915.67;125603;1091;102919;-68
2021/06/26 10:31:39;;;;;;;18.03;8.67;;;;;;;25.38;64.90;98915.44;125617;1093;102918;-68
2021/06/26 10:34:22;;;;;;;17.60;8.43;;;;;;;25.40;64.86;98920.69;125655;1092;103090;-68
2021/06/26 10:36:54;;;;;;;17.57;8.87;;;;;;;25.38;64.48;98914.63;125614;1094;102998;-68
2021/06/26 10:39:31;;;;;;;18.43;9.80;;;;;;;25.24;64.32;98924.70;125661;1093;103453;-67
2021/06/26 10:42:11;;;;;;;18.00;8.60;;;;;;;24.97;64.16;98920.10;125710;1093;103654;-66
2021/06/26 10:44:53;;;;;;;15.37;8.50;;;;;;;24.80;63.93;98925.12;125482;1092;102967;-67
2021/06/26 10:47:40;;;;;;;18.30;8.87;;;;;;;24.67;64.13;98906.85;125330;1093;103026;-67
2021/06/26 10:50:22;;;;;;;15.43;8.27;;;;;;;24.61;64.11;98898.70;125416;1093;103023;-66
2021/06/26 10:52:57;;;;;;;15.53;8.70;;;;;;;24.59;64.07;98887.19;125796;1093;103054;-67
2021/06/26 10:55:27;;;;;;;16.77;7.90;;;;;;;24.53;63.84;98894.30;125475;1095;102991;-67
2021/06/26 10:57:57;;;;;;;16.33;8.23;;;;;;;24.48;63.39;98894.09;125771;1096;103038;-65
2021/06/26 11:00:33;;;;;;;16.60;9.27;;;;;;;24.45;63.96;98895.34;125625;1096;103012;-66
2021/06/26 11:03:05;;;;;;;15.70;8.83;;;;;;;24.47;63.67;98892.41;125617;1096;102993;-71
2021/06/26 11:05:36;;;;;;;18.43;8.50;;;;;;;24.50;63.74;98902.88;125320;1093;102932;-66
2021/06/26 11:08:21;;;;;;;14.47;8.37;;;;;;;24.47;63.23;98887.80;125497;1092;103056;-67
2021/06/26 11:10:57;;;;;;;15.30;8.47;;;;;;;24.49;63.29;98884.89;125615;1093;102996;-67
2021/06/26 11:13:29;;;;;;;16.27;8.80;;;;;;;24.59;63.44;98882.61;125376;1096;103026;-67
2021/06/26 11:16:05;;;;;;;17.00;8.75;;;;;;;24.69;63.27;98887.63;125355;1093;103037;-66
2021/06/26 11:18:34;;;;;;;18.25;8.75;;;;;;;24.80;63.08;98888.91;125599;1093;103003;-67
2021/06/26 11:21:04;;;;;;;13.83;8.07;;;;;;;24.84;63.15;98890.17;125487;1092;102911;-67
2021/06/26 11:23:32;;;;;;;17.10;9.43;;;;;;;24.79;62.82;98888.09;125629;1092;102925;-67